createdAt,value
2023-04-01T00:01:06.828Z,80.26
2023-04-01T00:05:11.436Z,80.14
2023-04-01T00:09:15.576Z,79.11
2023-04-01T00:13:18.470Z,79.58
2023-04-01T00:17:21.131Z,79.38
2023-04-01T00:21:24.377Z,79.11
2023-04-01T00:25:28.383Z,79.58
2023-04-01T00:29:31.705Z,79.55
2023-04-01T00:33:34.650Z,79.31
2023-04-01T00:37:38.655Z,78.55
2023-04-01T00:41:42.797Z,78.86
2023-04-01T00:45:47.513Z,79.20
2023-04-01T00:49:53.196Z,78.63
2023-04-01T00:53:58.903Z,78.62
2023-04-01T00:58:06.106Z,78.64
2023-04-01T01:02:12.949Z,78.82
2023-04-01T01:06:40.005Z,78.50
2023-04-01T01:10:48.282Z,78.73
2023-04-01T01:14:57.526Z,78.63
2023-04-01T01:19:11.530Z,78.65
2023-04-01T01:23:58.573Z,78.37
2023-04-01T01:28:16.685Z,78.55
2023-04-01T01:32:42.186Z,78.02
2023-04-01T01:36:49.743Z,77.91
2023-04-01T01:40:55.358Z,78.16
2023-04-01T01:45:01.650Z,78.09
2023-04-01T01:49:07.530Z,77.77
2023-04-01T01:53:13.496Z,78.47
2023-04-01T01:57:20.050Z,78.47
2023-04-01T02:01:26.725Z,78.50
2023-04-01T02:05:32.654Z,78.62
2023-04-01T02:09:37.649Z,79.15
2023-04-01T02:13:45.141Z,79.13
2023-04-01T02:17:49.857Z,79.10
2023-04-01T02:21:57.446Z,79.41
2023-04-01T02:26:01.907Z,79.11
2023-04-01T02:30:05.601Z,79.31
2023-04-01T02:34:08.635Z,79.66
2023-04-01T02:38:11.367Z,79.66
2023-04-01T02:42:15.555Z,80.25
2023-04-01T02:46:18.862Z,80.42
2023-04-01T02:50:21.547Z,80.71
2023-04-01T02:54:24.162Z,80.41
2023-04-01T02:58:28.180Z,80.69
2023-04-01T03:02:30.927Z,80.37
2023-04-01T03:06:33.875Z,80.82
2023-04-01T03:10:36.530Z,80.68
2023-04-01T03:14:40.513Z,80.88
2023-04-01T03:18:43.333Z,81.13
2023-04-01T03:22:46.842Z,81.23
2023-04-01T03:26:49.474Z,81.25
2023-04-01T03:30:53.502Z,81.79
2023-04-01T03:34:56.162Z,81.60
2023-04-01T03:38:58.839Z,81.64
2023-04-01T03:43:01.706Z,81.54
2023-04-01T03:47:05.803Z,81.80
2023-04-01T03:51:09.216Z,81.88
2023-04-01T03:55:12.001Z,81.94
2023-04-01T03:59:14.896Z,81.95
2023-04-01T04:03:18.970Z,82.12
2023-04-01T04:07:21.669Z,82.13
2023-04-01T04:11:24.814Z,82.18
2023-04-01T04:15:27.475Z,82.34
2023-04-01T04:19:35.825Z,82.33
2023-04-01T04:23:38.516Z,82.87
2023-04-01T04:27:41.345Z,82.81
2023-04-01T04:31:44.686Z,82.94
2023-04-01T04:35:48.784Z,83.64
2023-04-01T04:39:51.427Z,83.50
2023-04-01T04:43:55.946Z,83.57
2023-04-01T04:47:58.638Z,83.02
2023-04-01T04:52:02.710Z,82.91
2023-04-01T04:56:05.510Z,82.79
2023-04-01T05:00:10.994Z,81.63
2023-04-01T05:04:13.596Z,81.85
2023-04-01T05:08:17.597Z,82.01
2023-04-01T05:12:20.429Z,81.51
2023-04-01T05:16:23.141Z,81.99
2023-04-01T05:20:25.774Z,81.30
2023-04-01T05:24:29.835Z,81.06
2023-04-01T05:28:32.527Z,81.41
2023-04-01T05:32:35.231Z,80.54
2023-04-01T05:36:38.669Z,80.20
2023-04-01T05:40:42.672Z,79.28
2023-04-01T05:44:45.403Z,79.03
2023-04-01T05:48:48.159Z,78.24
2023-04-01T05:52:50.766Z,78.04
2023-04-01T05:56:54.930Z,77.61
2023-04-01T06:01:09.653Z,77.43
2023-04-01T06:05:19.652Z,77.41
2023-04-01T06:09:28.314Z,77.00
2023-04-01T06:13:47.274Z,76.22
2023-04-01T06:18:07.128Z,75.84
2023-04-01T06:22:42.033Z,76.31
2023-04-01T06:26:52.074Z,76.28
2023-04-01T06:31:06.505Z,75.15
2023-04-01T06:35:33.963Z,75.43
2023-04-01T06:40:02.124Z,75.83
2023-04-01T06:44:17.084Z,75.34
2023-04-01T06:48:39.492Z,75.57
2023-04-01T06:52:49.456Z,75.46
2023-04-01T06:57:00.226Z,74.63
2023-04-01T07:01:05.929Z,74.83
2023-04-01T07:05:13.105Z,74.98
2023-04-01T07:09:20.526Z,74.01
2023-04-01T07:13:28.304Z,74.48
2023-04-01T07:17:34.736Z,73.88
2023-04-01T07:21:44.901Z,73.40
2023-04-01T07:25:51.969Z,73.30
2023-04-01T07:29:58.452Z,73.94
2023-04-01T07:34:10.943Z,72.17
2023-04-01T07:38:28.091Z,71.19
2023-04-01T07:42:42.876Z,70.54
2023-04-01T07:46:57.839Z,70.82
2023-04-01T07:51:04.677Z,70.07
2023-04-01T07:55:15.175Z,69.79
2023-04-01T07:59:25.296Z,68.58
2023-04-01T08:03:38.100Z,69.37
2023-04-01T08:07:50.133Z,69.52
2023-04-01T08:12:05.019Z,68.24
2023-04-01T08:16:15.681Z,67.71
2023-04-01T08:20:30.866Z,67.35
2023-04-01T08:24:47.169Z,66.41
2023-04-01T08:28:57.049Z,65.86
2023-04-01T08:33:07.181Z,65.07
2023-04-01T08:37:14.399Z,65.13
2023-04-01T08:41:50.651Z,66.22
2023-04-01T08:46:09.444Z,65.53
2023-04-01T08:50:40.019Z,64.65
2023-04-01T08:54:58.952Z,65.38
2023-04-01T08:59:24.072Z,65.17
2023-04-01T09:03:53.985Z,65.21
2023-04-01T09:08:07.513Z,64.85
2023-04-01T09:12:26.021Z,65.40
2023-04-01T09:16:59.069Z,64.17
2023-04-01T09:21:29.940Z,64.06
2023-04-01T09:25:48.435Z,64.43
2023-04-01T09:30:10.437Z,64.07
2023-04-01T09:34:33.442Z,63.91
2023-04-01T09:38:54.090Z,64.07
2023-04-01T09:43:19.406Z,63.13
2023-04-01T09:47:36.335Z,62.95
2023-04-01T09:51:45.220Z,62.72
2023-04-01T09:56:36.820Z,62.72
2023-04-01T10:01:30.226Z,63.28
2023-04-01T10:06:05.891Z,63.09
2023-04-01T10:10:49.087Z,64.33
2023-04-01T10:15:32.720Z,63.78
2023-04-01T10:20:04.265Z,64.78
2023-04-01T10:24:45.916Z,65.14
2023-04-01T10:29:21.085Z,65.44
2023-04-01T10:34:10.362Z,64.99
2023-04-01T10:38:43.370Z,64.87
2023-04-01T10:43:41.324Z,63.82
2023-04-01T10:48:25.075Z,63.47
2023-04-01T10:53:06.120Z,63.45
2023-04-01T10:57:28.557Z,63.81
2023-04-01T11:02:12.274Z,64.29
2023-04-01T11:07:02.270Z,63.92
2023-04-01T11:11:49.107Z,63.72
2023-04-01T11:16:36.819Z,63.65
2023-04-01T11:21:07.036Z,65.62
2023-04-01T11:25:42.021Z,66.68
2023-04-01T11:30:00.923Z,67.92
2023-04-01T11:34:13.946Z,68.69
2023-04-01T11:38:42.338Z,71.72
2023-04-01T11:42:51.974Z,73.30
2023-04-01T11:47:15.356Z,74.74
2023-04-01T11:51:55.952Z,76.24
2023-04-01T11:56:17.952Z,79.38
2023-04-01T12:00:55.950Z,79.12
2023-04-01T12:05:38.946Z,80.15
2023-04-01T12:09:52.133Z,80.50
2023-04-01T12:14:01.847Z,81.08
2023-04-01T12:18:14.890Z,81.71
2023-04-01T12:22:42.457Z,81.47
2023-04-01T12:26:57.466Z,82.01
2023-04-01T12:31:15.006Z,82.32
2023-04-01T12:35:23.900Z,82.65
2023-04-01T12:39:51.335Z,83.16
2023-04-01T12:44:18.763Z,83.21
2023-04-01T12:48:54.967Z,82.43
2023-04-01T12:53:12.464Z,82.16
2023-04-01T12:57:31.447Z,83.22
2023-04-01T13:02:07.325Z,82.52
2023-04-01T13:06:42.179Z,84.25
2023-04-01T13:11:02.552Z,83.79
2023-04-01T13:15:25.035Z,83.24
2023-04-01T13:19:33.135Z,83.60
2023-04-01T13:23:49.106Z,84.33
2023-04-01T13:27:58.544Z,83.05
2023-04-01T13:32:15.828Z,84.45
2023-04-01T13:36:29.203Z,83.99
2023-04-01T13:40:49.353Z,84.59
2023-04-01T13:45:04.557Z,84.16
2023-04-01T13:49:35.875Z,84.99
2023-04-01T13:54:00.168Z,84.08
2023-04-01T13:58:28.172Z,85.38
2023-04-01T14:02:49.050Z,84.89
2023-04-01T14:07:02.813Z,85.87
2023-04-01T14:11:18.891Z,86.26
2023-04-01T14:15:43.948Z,86.00
2023-04-01T14:20:04.645Z,85.82
2023-04-01T14:24:27.179Z,86.48
2023-04-01T14:28:39.095Z,86.29
2023-04-01T14:32:51.416Z,86.17
2023-04-01T14:37:22.719Z,86.13
2023-04-01T14:41:38.852Z,84.85
2023-04-01T14:46:08.642Z,82.97
2023-04-01T14:50:17.275Z,82.74
2023-04-01T14:54:24.478Z,84.46
2023-04-01T14:58:40.952Z,84.48
2023-04-01T15:02:53.761Z,85.57
2023-04-01T15:07:17.531Z,84.98
2023-04-01T15:11:30.892Z,85.20
2023-04-01T15:15:41.561Z,85.80
2023-04-01T15:19:59.100Z,85.41
2023-04-01T15:24:11.244Z,85.16
2023-04-01T15:28:27.011Z,85.70
2023-04-01T15:32:41.531Z,84.57
2023-04-01T15:36:53.003Z,84.10
2023-04-01T15:41:04.957Z,83.64
2023-04-01T15:45:20.239Z,83.28
2023-04-01T15:49:38.594Z,83.75
2023-04-01T15:53:57.239Z,83.35
2023-04-01T15:58:25.241Z,82.99
2023-04-01T16:02:35.188Z,83.08
2023-04-01T16:06:50.750Z,83.29
2023-04-01T16:11:10.840Z,83.22
2023-04-01T16:15:27.126Z,83.73
2023-04-01T16:19:39.691Z,83.57
2023-04-01T16:23:44.607Z,82.45
2023-04-01T16:27:56.544Z,82.25
2023-04-01T16:32:22.767Z,82.83
2023-04-01T16:36:31.144Z,82.11
2023-04-01T16:40:44.753Z,81.56
2023-04-01T16:44:56.467Z,82.08
2023-04-01T16:49:15.657Z,82.34
2023-04-01T16:53:22.200Z,81.57
2023-04-01T16:57:30.064Z,81.99
2023-04-01T17:01:44.570Z,81.66
2023-04-01T17:06:03.194Z,82.69
2023-04-01T17:10:30.057Z,82.35
2023-04-01T17:14:43.846Z,82.28
2023-04-01T17:18:58.386Z,83.25
2023-04-01T17:23:10.389Z,84.39
2023-04-01T17:27:25.729Z,84.65
2023-04-01T17:31:44.390Z,84.87
2023-04-01T17:35:56.736Z,85.04
2023-04-01T17:40:17.780Z,85.61
2023-04-01T17:44:35.904Z,86.08
2023-04-01T17:48:51.169Z,86.54
2023-04-01T17:53:07.941Z,86.99
2023-04-01T17:57:36.086Z,87.82
2023-04-01T18:01:49.694Z,88.29
2023-04-01T18:06:06.130Z,88.67
2023-04-01T18:10:31.427Z,88.82
2023-04-01T18:14:51.158Z,88.89
2023-04-01T18:19:03.831Z,89.19
2023-04-01T18:23:13.328Z,89.57
2023-04-01T18:27:20.135Z,89.65
2023-04-01T18:31:27.582Z,89.52
2023-04-01T18:35:47.037Z,89.70
2023-04-01T18:39:52.779Z,89.72
2023-04-01T18:44:06.050Z,90.01
2023-04-01T18:48:36.252Z,89.53
2023-04-01T18:52:42.695Z,89.53
2023-04-01T18:56:47.270Z,89.51
2023-04-01T19:00:59.158Z,88.96
2023-04-01T19:05:08.077Z,89.03
2023-04-01T19:09:28.782Z,88.85
2023-04-01T19:13:40.896Z,88.83
2023-04-01T19:17:56.454Z,88.30
2023-04-01T19:22:16.008Z,88.26
2023-04-01T19:26:26.138Z,87.80
2023-04-01T19:30:43.848Z,87.72
2023-04-01T19:34:56.766Z,87.91
2023-04-01T19:39:18.128Z,87.78
2023-04-01T19:43:40.306Z,87.42
2023-04-01T19:47:55.580Z,87.62
2023-04-01T19:52:04.542Z,87.76
2023-04-01T19:56:17.856Z,87.43
2023-04-01T20:00:28.005Z,87.47
2023-04-01T20:04:35.581Z,86.90
2023-04-01T20:08:44.237Z,86.39
2023-04-01T20:12:56.409Z,86.04
2023-04-01T20:17:09.682Z,86.03
2023-04-01T20:21:29.155Z,86.10
2023-04-01T20:25:37.233Z,86.17
2023-04-01T20:29:54.084Z,86.46
2023-04-01T20:34:25.340Z,86.48
2023-04-01T20:38:49.348Z,86.38
2023-04-01T20:43:16.933Z,86.41
2023-04-01T20:47:32.009Z,86.38
2023-04-01T20:51:39.726Z,86.82
2023-04-01T20:56:14.532Z,86.29
2023-04-01T21:00:35.958Z,86.60
2023-04-01T21:04:57.088Z,86.11
2023-04-01T21:09:13.299Z,86.15
2023-04-01T21:13:30.396Z,86.48
2023-04-01T21:17:44.444Z,86.17
2023-04-01T21:22:17.419Z,85.88
2023-04-01T21:26:31.823Z,86.02
2023-04-01T21:30:49.381Z,86.20
2023-04-01T21:34:58.058Z,86.64
2023-04-01T21:39:17.448Z,86.33
2023-04-01T21:43:36.556Z,86.49
2023-04-01T21:48:15.001Z,86.96
2023-04-01T21:53:02.599Z,86.70
2023-04-01T21:57:45.036Z,86.33
2023-04-01T22:02:06.062Z,86.33
2023-04-01T22:06:19.813Z,86.73
2023-04-01T22:10:31.270Z,86.77
2023-04-01T22:14:43.498Z,86.86
2023-04-01T22:18:53.425Z,86.56
2023-04-01T22:23:09.897Z,86.73
2023-04-01T22:27:19.890Z,86.65
2023-04-01T22:31:29.914Z,86.74
2023-04-01T22:35:39.048Z,86.52
2023-04-01T22:40:02.036Z,86.54
2023-04-01T22:44:04.979Z,86.32
2023-04-01T22:48:14.566Z,86.51
2023-04-01T22:52:24.386Z,86.11
2023-04-01T22:56:33.468Z,85.88
2023-04-01T23:00:41.769Z,86.00
2023-04-01T23:04:50.974Z,86.32
2023-04-01T23:09:13.182Z,85.78
2023-04-01T23:13:21.650Z,86.17
2023-04-01T23:17:38.407Z,85.68
2023-04-01T23:21:46.743Z,84.74
2023-04-01T23:25:59.709Z,84.88
2023-04-01T23:30:02.713Z,84.19
2023-04-01T23:34:22.229Z,84.08
2023-04-01T23:38:28.111Z,84.03
2023-04-01T23:42:32.826Z,83.76
2023-04-01T23:46:37.302Z,83.93
2023-04-01T23:50:40.874Z,83.57
2023-04-01T23:54:50.351Z,83.55
2023-04-01T23:58:57.793Z,83.98
